createdAt,value
2023-02-24T00:01:52.795Z,20.33
2023-02-24T00:04:54.293Z,25.50
2023-02-24T00:07:55.754Z,28.95
2023-02-24T00:10:57.565Z,20.20
2023-02-24T00:13:59.873Z,17.65
2023-02-24T00:17:01.521Z,10.63
2023-02-24T00:20:05.565Z,12.20
2023-02-24T00:23:09.667Z,8.90
2023-02-24T00:26:11.707Z,11.35
2023-02-24T00:29:16.036Z,11.38
2023-02-24T00:32:17.631Z,9.18
2023-02-24T00:35:19.226Z,8.40
2023-02-24T00:38:20.668Z,10.85
2023-02-24T00:41:25.158Z,8.48
2023-02-24T00:44:29.553Z,9.90
2023-02-24T00:47:31.035Z,12.63
2023-02-24T00:50:32.530Z,5.20
2023-02-24T00:53:34.016Z,10.73
2023-02-24T00:56:35.521Z,11.68
2023-02-24T00:59:37.088Z,12.38
2023-02-24T01:02:38.560Z,11.50
2023-02-24T01:05:40.006Z,14.32
2023-02-24T01:08:47.498Z,15.02
2023-02-24T01:12:18.210Z,6.85
2023-02-24T01:15:21.022Z,11.45
2023-02-24T01:18:22.487Z,11.25
2023-02-24T01:21:24.054Z,7.15
2023-02-24T01:24:25.724Z,7.28
2023-02-24T01:27:27.180Z,8.50
2023-02-24T01:30:28.656Z,9.48
2023-02-24T01:33:30.106Z,9.35
2023-02-24T01:36:32.346Z,13.80
2023-02-24T01:39:33.852Z,6.70
2023-02-24T01:42:35.542Z,7.63
2023-02-24T01:45:37.012Z,5.73
2023-02-24T01:48:38.506Z,16.00
2023-02-24T01:51:47.130Z,7.83
2023-02-24T01:55:02.787Z,9.38
2023-02-24T01:58:09.604Z,6.95
2023-02-24T02:01:11.046Z,8.20
2023-02-24T02:04:18.363Z,6.35
2023-02-24T02:07:22.052Z,7.82
2023-02-24T02:10:23.495Z,10.65
2023-02-24T02:13:25.651Z,14.20
2023-02-24T02:17:08.330Z,7.35
2023-02-24T02:20:17.701Z,13.77
2023-02-24T02:23:28.737Z,8.90
2023-02-24T02:26:47.292Z,10.43
2023-02-24T02:30:26.008Z,8.88
2023-02-24T02:34:01.308Z,9.85
2023-02-24T02:37:24.565Z,9.85
2023-02-24T02:40:41.320Z,46.65
2023-02-24T02:44:07.605Z,66.95
2023-02-24T02:47:18.924Z,44.78
2023-02-24T02:50:38.635Z,72.50
2023-02-24T02:53:57.229Z,60.00
2023-02-24T02:57:07.973Z,162.50
2023-02-24T03:00:21.304Z,92.00
2023-02-24T03:03:22.802Z,182.55
2023-02-24T03:06:26.302Z,56.95
2023-02-24T03:09:29.817Z,27.98
2023-02-24T03:12:32.368Z,26.83
2023-02-24T03:18:40.765Z,10.30
2023-02-24T03:21:46.514Z,8.98
2023-02-24T03:24:47.953Z,9.15
2023-02-24T03:27:50.605Z,6.95
2023-02-24T03:30:58.623Z,6.28
2023-02-24T03:34:27.718Z,7.47
2023-02-24T03:37:29.911Z,9.30
2023-02-24T03:40:36.139Z,57.33
2023-02-24T03:43:41.209Z,31.63
2023-02-24T03:46:42.758Z,19.75
2023-02-24T03:49:44.368Z,15.00
2023-02-24T03:53:18.137Z,12.23
2023-02-24T03:56:58.689Z,13.18
2023-02-24T04:00:22.409Z,7.65
2023-02-24T04:03:57.989Z,10.10
2023-02-24T04:07:19.243Z,10.10
2023-02-24T04:10:27.059Z,19.55
2023-02-24T04:13:44.887Z,19.08
2023-02-24T04:17:13.408Z,22.50
2023-02-24T04:20:16.658Z,24.58
2023-02-24T04:23:20.196Z,26.25
2023-02-24T04:26:21.693Z,20.50
2023-02-24T04:29:23.657Z,14.23
2023-02-24T04:32:28.012Z,21.27
2023-02-24T04:35:29.569Z,18.90
2023-02-24T04:38:31.144Z,21.15
2023-02-24T04:41:32.590Z,20.93
2023-02-24T04:44:34.132Z,11.20
2023-02-24T04:47:37.177Z,12.23
2023-02-24T04:50:40.182Z,14.77
2023-02-24T04:53:41.953Z,15.18
2023-02-24T04:56:44.861Z,11.00
2023-02-24T04:59:46.922Z,8.93
2023-02-24T05:02:49.434Z,15.02
2023-02-24T05:05:56.933Z,13.15
2023-02-24T05:08:58.441Z,14.73
2023-02-24T05:12:00.280Z,12.32
2023-02-24T05:15:01.826Z,10.57
2023-02-24T05:18:07.729Z,14.30
2023-02-24T05:21:29.719Z,21.35
2023-02-24T05:24:31.432Z,13.50
2023-02-24T05:27:33.868Z,17.67
2023-02-24T05:33:37.782Z,20.23
2023-02-24T05:36:42.810Z,22.42
2023-02-24T05:39:44.279Z,19.75
2023-02-24T05:42:45.729Z,18.27
2023-02-24T05:45:47.206Z,16.58
2023-02-24T05:48:51.799Z,18.67
2023-02-24T05:51:57.193Z,19.80
2023-02-24T05:55:00.741Z,14.45
2023-02-24T05:58:06.225Z,11.40
2023-02-24T06:01:16.169Z,12.30
2023-02-24T06:04:36.353Z,15.82
2023-02-24T06:07:37.837Z,13.68
2023-02-24T06:10:42.069Z,11.20
2023-02-24T06:13:49.462Z,17.27
2023-02-24T06:16:51.045Z,14.48
2023-02-24T06:19:52.869Z,17.23
2023-02-24T06:22:57.356Z,23.08
2023-02-24T06:26:02.297Z,31.55
2023-02-24T06:29:05.473Z,25.83
2023-02-24T06:32:08.807Z,43.28
2023-02-24T06:35:12.686Z,50.50
2023-02-24T06:38:14.901Z,70.60
2023-02-24T06:41:16.453Z,92.25
2023-02-24T06:44:17.982Z,76.73
2023-02-24T06:47:19.498Z,71.07
2023-02-24T06:50:21.716Z,58.67
2023-02-24T06:53:23.911Z,37.03
2023-02-24T06:56:25.654Z,46.13
2023-02-24T06:59:30.069Z,122.30
2023-02-24T07:02:39.458Z,49.97
2023-02-24T07:05:42.240Z,59.65
2023-02-24T07:08:44.056Z,42.53
2023-02-24T07:11:47.548Z,26.98
2023-02-24T07:14:50.397Z,33.72
2023-02-24T07:17:54.250Z,39.78
2023-02-24T07:20:55.699Z,33.53
2023-02-24T07:23:59.177Z,20.40
2023-02-24T07:27:05.401Z,24.85
2023-02-24T07:30:10.056Z,23.20
2023-02-24T07:33:11.969Z,24.83
2023-02-24T07:36:15.018Z,26.70
2023-02-24T07:39:16.966Z,38.15
2023-02-24T07:42:18.425Z,38.05
2023-02-24T07:45:20.332Z,30.20
2023-02-24T07:48:21.856Z,29.85
2023-02-24T07:51:25.121Z,32.88
2023-02-24T07:54:30.003Z,33.55
2023-02-24T07:57:33.314Z,35.13
2023-02-24T08:00:50.360Z,35.85
2023-02-24T08:03:55.935Z,37.60
2023-02-24T08:06:58.831Z,41.97
2023-02-24T08:10:29.618Z,42.42
2023-02-24T08:13:37.381Z,41.97
2023-02-24T08:16:41.682Z,41.67
2023-02-24T08:19:43.394Z,36.95
2023-02-24T08:22:46.998Z,38.60
2023-02-24T08:25:48.599Z,41.55
2023-02-24T08:28:51.664Z,38.22
2023-02-24T08:31:53.191Z,35.10
2023-02-24T08:35:02.729Z,42.90
2023-02-24T08:38:10.205Z,39.25
2023-02-24T08:41:18.106Z,42.88
2023-02-24T08:44:20.392Z,51.20
2023-02-24T08:47:30.864Z,41.50
2023-02-24T08:50:33.849Z,45.72
2023-02-24T08:53:35.470Z,41.15
2023-02-24T08:56:43.156Z,43.97
2023-02-24T08:59:49.981Z,41.78
2023-02-24T09:02:56.103Z,39.80
2023-02-24T09:05:58.477Z,43.63
2023-02-24T09:09:17.996Z,44.45
2023-02-24T09:12:24.531Z,37.03
2023-02-24T09:15:41.196Z,36.85
2023-02-24T09:18:42.844Z,39.80
2023-02-24T09:21:50.035Z,38.93
2023-02-24T09:25:11.450Z,33.40
2023-02-24T09:28:17.718Z,36.58
2023-02-24T09:31:19.696Z,37.13
2023-02-24T09:34:30.052Z,29.25
2023-02-24T09:37:31.616Z,33.03
2023-02-24T09:40:40.152Z,36.83
2023-02-24T09:43:44.216Z,29.00
2023-02-24T09:46:55.244Z,32.55
2023-02-24T09:50:03.955Z,35.53
2023-02-24T09:53:17.322Z,37.47
2023-02-24T09:56:28.010Z,30.85
2023-02-24T09:59:38.355Z,33.85
2023-02-24T10:02:46.217Z,40.15
2023-02-24T10:06:12.049Z,34.28
2023-02-24T10:09:16.388Z,61.15
2023-02-24T10:12:17.734Z,32.80
2023-02-24T10:15:44.710Z,34.55
2023-02-24T10:19:14.906Z,38.05
2023-02-24T10:22:50.628Z,33.65
2023-02-24T10:25:54.415Z,35.13
2023-02-24T10:29:22.606Z,31.80
2023-02-24T10:32:37.121Z,34.35
2023-02-24T10:35:38.827Z,31.60
2023-02-24T10:38:40.878Z,33.00
2023-02-24T10:41:47.687Z,34.08
2023-02-24T10:45:01.343Z,35.70
2023-02-24T10:48:06.509Z,39.13
2023-02-24T10:51:19.676Z,45.40
2023-02-24T10:54:34.525Z,43.05
2023-02-24T10:57:58.140Z,57.28
2023-02-24T11:01:13.413Z,51.03
2023-02-24T11:04:28.534Z,51.53
2023-02-24T11:07:53.797Z,51.90
2023-02-24T11:11:06.919Z,47.70
2023-02-24T11:14:33.102Z,48.05
2023-02-24T11:17:34.846Z,50.42
2023-02-24T11:20:49.399Z,35.50
2023-02-24T11:23:53.530Z,52.40
2023-02-24T11:26:55.031Z,47.95
2023-02-24T11:30:17.041Z,46.20
2023-02-24T11:33:41.158Z,39.45
2023-02-24T11:37:09.598Z,46.60
2023-02-24T11:40:23.783Z,51.53
2023-02-24T11:43:26.892Z,51.58
2023-02-24T11:46:36.445Z,48.85
2023-02-24T11:49:43.368Z,49.33
2023-02-24T11:52:46.857Z,50.15
2023-02-24T11:55:51.468Z,54.80
2023-02-24T11:58:58.783Z,46.10
2023-02-24T12:02:03.844Z,46.00
2023-02-24T12:05:19.659Z,55.03
2023-02-24T12:08:33.227Z,61.70
2023-02-24T12:11:39.210Z,50.40
2023-02-24T12:14:45.703Z,56.55
2023-02-24T12:18:24.277Z,47.25
2023-02-24T12:21:36.685Z,45.13
2023-02-24T12:24:47.235Z,45.33
2023-02-24T12:28:16.728Z,48.15
2023-02-24T12:31:37.541Z,45.90
2023-02-24T12:35:03.339Z,43.50
2023-02-24T12:38:26.066Z,48.47
2023-02-24T12:44:52.765Z,46.53
2023-02-24T12:48:36.641Z,39.33
2023-02-24T12:51:50.130Z,49.95
2023-02-24T12:54:55.622Z,46.75
2023-02-24T12:58:13.733Z,43.38
2023-02-24T13:01:29.131Z,40.90
2023-02-24T13:04:36.530Z,43.88
2023-02-24T13:07:59.460Z,46.08
2023-02-24T13:11:11.836Z,44.03
2023-02-24T13:14:27.456Z,47.70
2023-02-24T13:17:29.554Z,50.70
2023-02-24T13:20:36.366Z,37.80
2023-02-24T13:23:40.885Z,48.17
2023-02-24T13:26:42.328Z,37.17
2023-02-24T13:29:45.442Z,48.17
2023-02-24T13:32:47.463Z,51.13
2023-02-24T13:35:51.099Z,51.35
2023-02-24T13:39:05.362Z,47.05
2023-02-24T13:42:21.869Z,48.90
2023-02-24T13:45:26.373Z,53.83
2023-02-24T13:48:45.662Z,56.38
2023-02-24T13:51:52.935Z,43.33
2023-02-24T13:55:01.248Z,46.83
2023-02-24T13:58:26.228Z,46.30
2023-02-24T14:01:28.991Z,51.38
2023-02-24T14:04:31.287Z,50.33
2023-02-24T14:07:34.890Z,56.97
2023-02-24T14:10:37.681Z,53.90
2023-02-24T14:13:54.151Z,49.30
2023-02-24T14:16:55.683Z,44.92
2023-02-24T14:20:09.406Z,71.80
2023-02-24T14:23:33.643Z,47.63
2023-02-24T14:26:41.392Z,45.42
2023-02-24T14:29:44.447Z,39.40
2023-02-24T14:32:46.096Z,45.55
2023-02-24T14:35:47.638Z,55.80
2023-02-24T14:39:02.073Z,45.57
2023-02-24T14:42:12.447Z,44.03
2023-02-24T14:45:17.714Z,49.08
2023-02-24T14:48:26.919Z,43.95
2023-02-24T14:51:36.373Z,45.88
2023-02-24T14:54:53.540Z,38.70
2023-02-24T14:58:01.029Z,42.22
2023-02-24T15:01:05.978Z,42.22
2023-02-24T15:04:12.552Z,45.40
2023-02-24T15:07:25.653Z,37.30
2023-02-24T15:10:28.958Z,43.85
2023-02-24T15:13:39.319Z,44.00
2023-02-24T15:16:44.854Z,40.65
2023-02-24T15:19:49.018Z,39.97
2023-02-24T15:22:50.554Z,42.60
2023-02-24T15:25:52.048Z,37.10
2023-02-24T15:29:00.766Z,40.23
2023-02-24T15:32:02.380Z,44.05
2023-02-24T15:35:07.679Z,40.03
2023-02-24T15:38:20.065Z,43.85
2023-02-24T15:41:21.530Z,39.95
2023-02-24T15:44:58.393Z,50.07
2023-02-24T15:48:04.094Z,39.80
2023-02-24T15:51:05.737Z,39.42
2023-02-24T15:54:29.150Z,42.55
2023-02-24T15:57:31.534Z,45.95
2023-02-24T16:03:36.775Z,43.25
2023-02-24T16:06:41.603Z,51.63
2023-02-24T16:09:43.087Z,48.92
2023-02-24T16:12:50.029Z,42.50
2023-02-24T16:15:51.615Z,40.83
2023-02-24T16:18:53.113Z,46.03
2023-02-24T16:21:54.665Z,34.67
2023-02-24T16:24:56.260Z,28.57
2023-02-24T16:27:57.711Z,54.33
2023-02-24T16:30:59.277Z,38.47
2023-02-24T16:34:01.048Z,50.67
2023-02-24T16:37:02.610Z,39.67
2023-02-24T16:40:10.585Z,36.73
2023-02-24T16:43:13.290Z,44.13
2023-02-24T16:46:17.143Z,54.42
2023-02-24T16:49:19.172Z,45.53
2023-02-24T16:52:23.288Z,62.95
2023-02-24T16:55:24.772Z,42.63
2023-02-24T16:58:26.274Z,41.97
2023-02-24T17:01:27.747Z,40.00
2023-02-24T17:04:29.440Z,42.10
2023-02-24T17:07:31.241Z,38.63
2023-02-24T17:10:33.571Z,42.20
2023-02-24T17:16:39.371Z,41.22
2023-02-24T17:19:40.942Z,38.25
2023-02-24T17:22:43.116Z,43.53
2023-02-24T17:25:44.576Z,37.35
2023-02-24T17:28:46.063Z,38.20
2023-02-24T17:31:47.705Z,40.43
2023-02-24T17:34:49.261Z,43.30
2023-02-24T17:37:50.739Z,52.10
2023-02-24T17:40:52.255Z,92.87
2023-02-24T17:43:53.952Z,42.77
2023-02-24T17:46:55.434Z,51.03
2023-02-24T17:49:56.936Z,47.63
2023-02-24T17:52:58.588Z,51.87
2023-02-24T17:56:04.032Z,36.43
2023-02-24T17:59:05.577Z,52.30
2023-02-24T18:02:07.041Z,48.80
2023-02-24T18:05:08.682Z,55.28
2023-02-24T18:08:10.139Z,45.93
2023-02-24T18:11:14.875Z,43.10
2023-02-24T18:14:16.646Z,40.47
2023-02-24T18:17:18.431Z,42.95
2023-02-24T18:20:20.139Z,28.42
2023-02-24T18:23:21.687Z,37.70
2023-02-24T18:26:25.313Z,42.38
2023-02-24T18:29:27.065Z,46.63
2023-02-24T18:32:28.772Z,45.28
2023-02-24T18:35:30.469Z,35.53
2023-02-24T18:39:22.189Z,35.40
2023-02-24T18:42:23.746Z,48.10
2023-02-24T18:45:25.226Z,31.77
2023-02-24T18:48:26.960Z,31.35
2023-02-24T18:51:29.101Z,38.93
2023-02-24T18:54:30.939Z,35.03
2023-02-24T18:57:32.465Z,24.77
2023-02-24T19:00:34.131Z,24.17
2023-02-24T19:03:35.630Z,25.83
2023-02-24T19:06:37.126Z,28.58
2023-02-24T19:09:41.351Z,24.27
2023-02-24T19:12:43.356Z,33.45
2023-02-24T19:15:44.982Z,16.00
2023-02-24T19:18:50.173Z,23.97
2023-02-24T19:21:51.720Z,21.30
2023-02-24T19:24:53.210Z,27.10
2023-02-24T19:27:54.740Z,23.65
2023-02-24T19:30:56.361Z,23.55
2023-02-24T19:34:06.880Z,28.70
2023-02-24T19:37:08.512Z,18.23
2023-02-24T19:40:10.789Z,20.70
2023-02-24T19:43:12.236Z,25.67
2023-02-24T19:46:17.169Z,22.55
2023-02-24T19:49:18.684Z,29.40
2023-02-24T19:52:20.468Z,29.08
2023-02-24T19:55:22.485Z,25.50
2023-02-24T19:58:24.053Z,31.75
2023-02-24T20:01:26.535Z,27.60
2023-02-24T20:07:29.980Z,20.20
2023-02-24T20:10:31.496Z,27.70
2023-02-24T20:13:33.052Z,26.67
2023-02-24T20:16:36.816Z,24.57
2023-02-24T20:19:38.303Z,24.38
2023-02-24T20:22:39.818Z,27.33
2023-02-24T20:25:50.063Z,19.25
2023-02-24T20:28:51.561Z,27.00
2023-02-24T20:31:53.285Z,27.02
2023-02-24T20:34:54.921Z,30.23
2023-02-24T20:37:56.483Z,27.45
2023-02-24T20:41:00.344Z,27.45
2023-02-24T20:44:02.081Z,27.17
2023-02-24T20:47:03.588Z,27.90
2023-02-24T20:50:05.748Z,24.40
2023-02-24T20:53:07.868Z,27.45
2023-02-24T20:56:19.187Z,28.55
2023-02-24T20:59:21.970Z,27.95
2023-02-24T21:02:23.451Z,30.77
2023-02-24T21:05:28.284Z,27.60
2023-02-24T21:08:29.752Z,32.40
2023-02-24T21:11:31.316Z,26.50
2023-02-24T21:14:32.891Z,17.90
2023-02-24T21:17:34.551Z,23.10
2023-02-24T21:20:36.077Z,22.00
2023-02-24T21:23:37.937Z,25.83
2023-02-24T21:26:39.386Z,20.75
2023-02-24T21:29:40.876Z,30.42
2023-02-24T21:32:42.911Z,17.85
2023-02-24T21:35:44.630Z,33.17
2023-02-24T21:38:46.650Z,24.67
2023-02-24T21:41:48.123Z,24.77
2023-02-24T21:44:51.085Z,27.13
2023-02-24T21:47:52.686Z,25.25
2023-02-24T21:51:03.611Z,28.95
2023-02-24T21:54:07.702Z,26.92
2023-02-24T21:57:09.147Z,24.45
2023-02-24T22:00:18.160Z,28.80
2023-02-24T22:03:19.712Z,31.77
2023-02-24T22:06:21.601Z,31.27
2023-02-24T22:09:23.234Z,32.03
2023-02-24T22:12:24.697Z,34.22
2023-02-24T22:15:26.155Z,34.58
2023-02-24T22:18:28.176Z,24.75
2023-02-24T22:21:29.718Z,27.45
2023-02-24T22:24:31.700Z,25.02
2023-02-24T22:27:33.361Z,25.88
2023-02-24T22:30:34.887Z,17.27
2023-02-24T22:33:37.414Z,23.25
2023-02-24T22:36:38.874Z,29.88
2023-02-24T22:39:40.660Z,23.48
2023-02-24T22:42:42.136Z,21.35
2023-02-24T22:45:43.589Z,26.55
2023-02-24T22:48:45.097Z,22.50
2023-02-24T22:51:46.571Z,20.88
2023-02-24T22:54:48.025Z,23.15
2023-02-24T22:57:49.655Z,30.67
2023-02-24T23:00:52.587Z,15.27
2023-02-24T23:03:54.228Z,19.15
2023-02-24T23:06:55.717Z,23.45
2023-02-24T23:09:59.210Z,24.80
2023-02-24T23:13:00.812Z,19.15
2023-02-24T23:16:03.516Z,21.67
2023-02-24T23:19:12.068Z,17.52
2023-02-24T23:22:14.683Z,20.75
2023-02-24T23:28:17.471Z,17.77
2023-02-24T23:31:19.941Z,19.13
2023-02-24T23:34:21.493Z,17.52
2023-02-24T23:37:22.947Z,18.42
2023-02-24T23:40:26.096Z,17.73
2023-02-24T23:43:27.757Z,19.25
2023-02-24T23:46:29.610Z,18.88
2023-02-24T23:49:47.326Z,18.05
2023-02-24T23:52:49.516Z,13.13
2023-02-24T23:55:51.028Z,13.75
2023-02-24T23:58:53.458Z,17.67
